Time;durP1;ratioP1;P1;durP2;ratioP2;P2;SDS_P1;SDS_P2;PMS_P1;PMS_P2;Temp;Humidity;BMP_temperature;BMP_pressure;BME280_temperature;BME280_humidity;BME280_pressure;Samples;Min_cycle;Max_cycle;Signal;HPM_P1;HPM_P2
2022/08/25 00:01:32;;;;;;;3.47;3.17;;;27.50;53.80;;;;;;5091877;28;20499;-59
2022/08/25 00:04:00;;;;;;;2.43;2.33;;;27.40;54.00;;;;;;5091746;28;20878;-61
2022/08/25 00:06:27;;;;;;;3.57;3.27;;;27.40;54.10;;;;;;5079622;28;20479;-61
2022/08/25 00:08:58;;;;;;;3.10;3.00;;;27.40;54.30;;;;;;5072966;28;20444;-60
2022/08/25 00:11:27;;;;;;;2.80;2.70;;;27.40;54.70;;;;;;5071499;28;21010;-61
2022/08/25 00:13:57;;;;;;;2.60;2.50;;;27.40;54.90;;;;;;5071719;28;20467;-62
2022/08/25 00:16:25;;;;;;;3.23;3.03;;;27.40;55.00;;;;;;5077197;28;20457;-59
2022/08/25 00:18:57;;;;;;;3.07;2.97;;;27.40;54.90;;;;;;5091568;28;20571;-61
2022/08/25 00:21:24;;;;;;;3.00;2.80;;;27.40;55.70;;;;;;5091768;28;20474;-60
2022/08/25 00:23:51;;;;;;;3.30;3.10;;;27.30;55.70;;;;;;5091722;28;20498;-60
2022/08/25 00:26:19;;;;;;;3.40;3.07;;;27.30;55.30;;;;;;5078527;28;20475;-62
2022/08/25 00:28:46;;;;;;;2.80;2.70;;;27.30;55.30;;;;;;5072418;28;20546;-62
2022/08/25 00:31:15;;;;;;;2.90;2.80;;;27.30;55.30;;;;;;5082713;28;20478;-65
2022/08/25 00:33:44;;;;;;;3.40;3.30;;;27.30;55.30;;;;;;5085007;28;20478;-62
2022/08/25 00:36:12;;;;;;;3.00;2.80;;;27.30;55.20;;;;;;5085059;28;20987;-64
2022/08/25 00:38:39;;;;;;;3.13;3.03;;;27.30;55.20;;;;;;5084118;28;20499;-63
2022/08/25 00:41:07;;;;;;;2.93;2.70;;;27.20;54.90;;;;;;5084444;28;20444;-63
2022/08/25 00:43:46;;;;;;;2.57;2.37;;;27.20;54.90;;;;;;5083761;28;20463;-62
2022/08/25 00:46:14;;;;;;;2.97;2.77;;;27.30;54.80;;;;;;5083050;28;20489;-63
2022/08/25 00:48:43;;;;;;;3.17;2.97;;;27.30;55.00;;;;;;5083708;28;20493;-63
2022/08/25 00:51:14;;;;;;;2.93;2.83;;;27.20;54.80;;;;;;5084750;28;20444;-63
2022/08/25 00:53:42;;;;;;;2.47;2.37;;;27.20;54.90;;;;;;5085086;28;20464;-63
2022/08/25 00:56:09;;;;;;;3.07;2.87;;;27.20;54.90;;;;;;5098371;28;20443;-62
2022/08/25 00:58:37;;;;;;;2.80;2.60;;;27.20;54.80;;;;;;5098779;28;20515;-63
2022/08/25 01:01:04;;;;;;;2.90;2.70;;;27.10;54.60;;;;;;5098845;28;21025;-64
2022/08/25 01:03:32;;;;;;;2.60;2.50;;;27.10;54.70;;;;;;5099784;28;20553;-63
2022/08/25 01:06:03;;;;;;;2.70;2.60;;;27.10;54.70;;;;;;5102836;28;20454;-62
2022/08/25 01:08:32;;;;;;;2.97;2.77;;;27.10;54.70;;;;;;5103085;28;20435;-63
2022/08/25 01:11:01;;;;;;;3.20;2.90;;;27.10;55.10;;;;;;5104830;28;20474;-62
2022/08/25 01:13:33;;;;;;;3.70;2.60;;;27.10;55.10;;;;;;5104607;28;20466;-63
2022/08/25 01:16:00;;;;;;;3.40;2.73;;;27.00;54.90;;;;;;5104493;28;20454;-63
2022/08/25 01:18:28;;;;;;;3.03;2.83;;;27.00;54.80;;;;;;5099903;28;20538;-63
2022/08/25 01:20:57;;;;;;;2.90;2.70;;;27.00;55.00;;;;;;5084099;28;20467;-62
2022/08/25 01:23:25;;;;;;;4.70;3.60;;;26.90;55.60;;;;;;5083969;28;20494;-63
2022/08/25 01:26:00;;;;;;;2.93;2.83;;;26.90;55.70;;;;;;5084905;28;20463;-63
2022/08/25 01:28:28;;;;;;;3.20;3.00;;;26.90;55.50;;;;;;5104352;28;20448;-62
2022/08/25 01:30:55;;;;;;;2.30;2.20;;;26.90;55.80;;;;;;5104793;28;20824;-62
2022/08/25 01:33:22;;;;;;;2.50;2.40;;;26.90;55.80;;;;;;5104479;28;20827;-62
2022/08/25 01:35:49;;;;;;;3.17;2.97;;;26.90;55.60;;;;;;5105350;28;20520;-61
2022/08/25 01:38:19;;;;;;;2.70;2.60;;;26.80;55.40;;;;;;5084601;28;20570;-63
2022/08/25 01:40:47;;;;;;;3.03;2.83;;;26.80;55.50;;;;;;5083800;28;20450;-62
2022/08/25 01:43:30;;;;;;;2.70;2.50;;;26.80;55.60;;;;;;5084516;28;20463;-62
2022/08/25 01:45:57;;;;;;;2.47;2.33;;;26.80;56.10;;;;;;5090498;28;20453;-63
2022/08/25 01:48:25;;;;;;;3.13;2.93;;;26.80;56.00;;;;;;5107747;28;20500;-63
2022/08/25 01:50:52;;;;;;;2.97;2.77;;;26.70;55.80;;;;;;5105341;28;21008;-64
2022/08/25 01:53:27;;;;;;;3.57;3.37;;;26.70;55.90;;;;;;5104728;28;20497;-63
2022/08/25 01:56:00;;;;;;;3.00;2.77;;;26.70;56.00;;;;;;5088889;28;20442;-62
2022/08/25 01:58:29;;;;;;;3.17;2.97;;;26.70;56.00;;;;;;5089024;28;20478;-62
2022/08/25 02:00:58;;;;;;;2.80;2.60;;;26.70;56.40;;;;;;5093107;28;20813;-62
2022/08/25 02:03:26;;;;;;;2.77;2.57;;;26.70;56.70;;;;;;5104994;28;20454;-62
2022/08/25 02:05:54;;;;;;;3.10;3.00;;;26.70;56.80;;;;;;5104664;28;20480;-63
2022/08/25 02:08:23;;;;;;;3.23;3.03;;;26.60;56.70;;;;;;5102445;28;20443;-63
2022/08/25 02:10:51;;;;;;;3.80;2.97;;;26.60;56.80;;;;;;5103937;28;20455;-63
2022/08/25 02:13:19;;;;;;;3.47;2.73;;;26.60;56.80;;;;;;5105365;28;20470;-62
2022/08/25 02:15:49;;;;;;;2.67;2.50;;;26.60;56.80;;;;;;5103969;28;20449;-63
2022/08/25 02:18:16;;;;;;;3.10;2.97;;;26.60;56.80;;;;;;5104088;28;20510;-63
2022/08/25 02:20:43;;;;;;;4.23;3.40;;;26.60;57.20;;;;;;5087102;28;20534;-63
2022/08/25 02:23:10;;;;;;;2.77;2.67;;;26.60;57.40;;;;;;5084693;28;20452;-63
2022/08/25 02:25:40;;;;;;;3.57;3.37;;;26.50;57.20;;;;;;5083478;28;20467;-63
2022/08/25 02:28:08;;;;;;;3.70;3.50;;;26.50;57.20;;;;;;5082322;28;20467;-63
2022/08/25 02:30:35;;;;;;;2.90;2.60;;;26.50;57.40;;;;;;5099226;28;20438;-62
2022/08/25 02:33:02;;;;;;;2.63;2.53;;;26.40;57.30;;;;;;5106773;28;20458;-63
2022/08/25 02:35:29;;;;;;;3.00;2.80;;;26.40;57.40;;;;;;5111687;28;20503;-63
2022/08/25 02:37:57;;;;;;;2.50;2.40;;;26.40;57.60;;;;;;5108996;28;20438;-64
2022/08/25 02:40:24;;;;;;;2.53;2.40;;;26.40;57.70;;;;;;5088598;28;20475;-62
2022/08/25 02:42:52;;;;;;;2.80;2.70;;;26.40;57.70;;;;;;5083363;28;20473;-61
2022/08/25 02:45:19;;;;;;;3.40;3.10;;;26.40;57.70;;;;;;5083938;28;20957;-63
2022/08/25 02:47:46;;;;;;;2.80;2.60;;;26.40;57.90;;;;;;5083777;28;20451;-62
2022/08/25 02:50:13;;;;;;;2.93;2.73;;;26.40;57.90;;;;;;5097801;28;20435;-62
2022/08/25 02:52:40;;;;;;;3.30;3.20;;;26.40;57.50;;;;;;5082108;28;20447;-62
2022/08/25 02:55:12;;;;;;;3.73;3.10;;;26.30;57.50;;;;;;5082125;28;20455;-62
2022/08/25 02:57:40;;;;;;;3.40;3.30;;;26.30;57.30;;;;;;5083159;28;20447;-61
2022/08/25 03:00:12;;;;;;;3.13;3.00;;;26.30;57.40;;;;;;5101016;28;20478;-63
2022/08/25 03:02:40;;;;;;;2.70;2.50;;;26.30;57.40;;;;;;5102983;28;20467;-62
2022/08/25 03:05:08;;;;;;;3.00;2.83;;;26.30;57.50;;;;;;5102263;28;20450;-63
2022/08/25 03:07:36;;;;;;;3.20;3.00;;;26.30;57.60;;;;;;5102235;28;20971;-63
2022/08/25 03:10:06;;;;;;;2.50;2.40;;;26.30;57.20;;;;;;5085186;28;20435;-63
2022/08/25 03:12:33;;;;;;;2.30;2.20;;;26.30;57.00;;;;;;5084175;28;20439;-61
2022/08/25 03:15:00;;;;;;;2.70;2.60;;;26.30;57.10;;;;;;5083736;28;20466;-61
2022/08/25 03:17:28;;;;;;;3.20;3.00;;;26.30;57.10;;;;;;5084109;28;20483;-62
2022/08/25 03:19:55;;;;;;;3.53;3.33;;;26.20;57.20;;;;;;5087090;28;20507;-63
2022/08/25 03:22:22;;;;;;;2.97;2.77;;;26.30;57.40;;;;;;5082567;28;20446;-62
2022/08/25 03:24:49;;;;;;;2.53;2.43;;;26.30;57.40;;;;;;5081628;28;20458;-62
2022/08/25 03:27:15;;;;;;;3.03;2.87;;;26.20;57.20;;;;;;5081601;28;20507;-62
2022/08/25 03:29:42;;;;;;;2.87;2.70;;;26.20;57.00;;;;;;5096201;28;20474;-63
2022/08/25 03:32:10;;;;;;;3.40;3.20;;;26.30;56.90;;;;;;5104878;28;20212;-63
2022/08/25 03:34:38;;;;;;;2.97;2.77;;;26.20;56.90;;;;;;5106572;28;20465;-62
2022/08/25 03:37:07;;;;;;;4.13;3.93;;;26.20;57.30;;;;;;5106741;28;20470;-62
2022/08/25 03:39:34;;;;;;;3.43;3.23;;;26.20;57.80;;;;;;5093539;28;20483;-63
2022/08/25 03:42:03;;;;;;;4.53;3.10;;;26.20;58.10;;;;;;5083734;28;20507;-62
2022/08/25 03:44:30;;;;;;;2.87;2.77;;;26.20;58.10;;;;;;5082720;28;20814;-62
2022/08/25 03:46:57;;;;;;;3.33;3.13;;;26.20;58.20;;;;;;5083693;28;20461;-62
2022/08/25 03:49:24;;;;;;;2.87;2.77;;;26.20;58.30;;;;;;5094507;28;20495;-63
2022/08/25 03:51:54;;;;;;;3.17;2.97;;;26.20;58.40;;;;;;5102875;28;20430;-62
2022/08/25 03:54:24;;;;;;;2.80;2.70;;;26.10;58.50;;;;;;5103789;28;20465;-61
2022/08/25 03:56:51;;;;;;;2.70;2.33;;;26.10;58.80;;;;;;5102926;28;20506;-63
2022/08/25 03:59:18;;;;;;;4.67;3.47;;;26.10;58.80;;;;;;5087218;28;20486;-62
2022/08/25 04:01:46;;;;;;;2.90;2.80;;;26.10;59.20;;;;;;5085826;28;20928;-63
2022/08/25 04:04:14;;;;;;;3.37;3.17;;;26.10;58.90;;;;;;5080575;28;20502;-63
2022/08/25 04:06:42;;;;;;;3.10;3.00;;;26.10;59.00;;;;;;5079502;28;20478;-63
2022/08/25 04:09:11;;;;;;;3.37;3.10;;;26.10;59.10;;;;;;5088630;28;21006;-62
2022/08/25 04:11:39;;;;;;;2.97;2.87;;;26.00;59.20;;;;;;5101742;28;20470;-62
2022/08/25 04:14:05;;;;;;;4.17;3.87;;;26.00;59.20;;;;;;5101747;28;20462;-62
2022/08/25 04:16:35;;;;;;;3.43;3.20;;;26.00;59.20;;;;;;5101005;28;20807;-62
2022/08/25 04:19:06;;;;;;;3.20;3.00;;;26.00;59.20;;;;;;5094055;28;20534;-62
2022/08/25 04:21:33;;;;;;;2.97;2.87;;;26.00;59.30;;;;;;5082671;28;20534;-63
2022/08/25 04:24:00;;;;;;;3.43;3.23;;;26.00;59.40;;;;;;5082202;28;20501;-62
2022/08/25 04:26:31;;;;;;;3.70;3.40;;;26.00;59.30;;;;;;5081175;28;20466;-63
2022/08/25 04:28:59;;;;;;;4.27;3.97;;;26.00;59.40;;;;;;5087047;28;20443;-61
2022/08/25 04:31:28;;;;;;;3.70;3.50;;;26.00;59.60;;;;;;5101354;28;20433;-63
2022/08/25 04:33:55;;;;;;;2.90;2.80;;;26.00;59.60;;;;;;5101148;28;20467;-63
2022/08/25 04:36:23;;;;;;;3.20;3.00;;;26.00;59.80;;;;;;5102766;28;20487;-62
2022/08/25 04:38:50;;;;;;;2.80;2.70;;;26.00;60.00;;;;;;5102751;28;20444;-63
2022/08/25 04:41:19;;;;;;;3.70;3.50;;;26.00;60.00;;;;;;5092980;28;20447;-65
2022/08/25 04:43:48;;;;;;;3.23;2.93;;;26.00;60.00;;;;;;5088857;28;20506;-59
2022/08/25 04:46:16;;;;;;;3.40;3.10;;;26.00;60.40;;;;;;5090890;28;20435;-60
2022/08/25 04:48:44;;;;;;;3.80;2.90;;;26.00;60.40;;;;;;5090966;28;20443;-58
2022/08/25 04:51:13;;;;;;;4.67;3.07;;;26.10;60.30;;;;;;5090041;28;20511;-59
2022/08/25 04:53:41;;;;;;;3.73;3.43;;;26.10;60.40;;;;;;5094383;28;21143;-65
2022/08/25 04:56:10;;;;;;;3.13;2.93;;;26.10;61.50;;;;;;5096540;28;20474;-64
2022/08/25 04:58:38;;;;;;;3.33;3.13;;;26.10;61.20;;;;;;5099271;28;20469;-64
2022/08/25 05:01:09;;;;;;;3.17;2.93;;;26.10;61.20;;;;;;5083582;28;21034;-62
2022/08/25 05:03:36;;;;;;;3.10;2.90;;;26.10;61.30;;;;;;5085435;28;20489;-64
2022/08/25 05:06:04;;;;;;;2.90;2.70;;;26.10;61.40;;;;;;5098293;28;20476;-64
2022/08/25 05:08:31;;;;;;;2.90;2.80;;;26.10;61.50;;;;;;5095090;28;20513;-65
2022/08/25 05:10:58;;;;;;;3.23;3.03;;;26.10;61.70;;;;;;5095908;28;20995;-63
2022/08/25 05:13:26;;;;;;;3.17;2.90;;;26.10;61.90;;;;;;5098655;28;20541;-63
2022/08/25 05:15:54;;;;;;;4.20;3.90;;;26.10;62.10;;;;;;5077560;28;20831;-65
2022/08/25 05:18:24;;;;;;;3.90;3.60;;;26.10;62.30;;;;;;5077886;28;20580;-65
2022/08/25 05:20:53;;;;;;;6.30;3.87;;;26.10;62.50;;;;;;5079910;28;20556;-64
2022/08/25 05:23:21;;;;;;;4.10;3.80;;;26.10;62.50;;;;;;5087992;28;20466;-63
2022/08/25 05:25:49;;;;;;;3.63;3.43;;;26.10;62.70;;;;;;5102370;28;20806;-63
2022/08/25 05:28:17;;;;;;;3.23;3.03;;;26.10;62.80;;;;;;5101465;28;20485;-65
2022/08/25 05:30:44;;;;;;;5.33;3.50;;;26.10;63.00;;;;;;5098737;28;20440;-65
2022/08/25 05:33:13;;;;;;;4.40;4.00;;;26.20;63.50;;;;;;5092714;28;20465;-65
2022/08/25 05:35:41;;;;;;;3.80;3.60;;;26.20;63.30;;;;;;5086724;28;20450;-65
2022/08/25 05:38:11;;;;;;;4.07;3.70;;;26.20;63.40;;;;;;5087596;28;20849;-64
2022/08/25 05:40:38;;;;;;;6.40;5.90;;;26.20;63.50;;;;;;5077582;28;20897;-67
2022/08/25 05:43:05;;;;;;;4.40;4.00;;;26.20;64.50;;;;;;5075166;28;20975;-68
2022/08/25 05:45:38;;;;;;;5.03;4.33;;;26.20;64.60;;;;;;5074017;28;20490;-68
2022/08/25 05:48:05;;;;;;;9.20;4.47;;;26.20;65.20;;;;;;5074013;28;20534;-67
2022/08/25 05:50:32;;;;;;;10.37;4.47;;;26.20;65.30;;;;;;5073228;28;20479;-67
2022/08/25 05:53:00;;;;;;;7.43;4.43;;;26.20;65.40;;;;;;5076072;28;20506;-66
2022/08/25 05:55:27;;;;;;;7.20;5.27;;;26.20;65.70;;;;;;5094441;28;20439;-67
2022/08/25 05:57:54;;;;;;;13.50;4.63;;;26.20;65.70;;;;;;5083972;28;20451;-66
2022/08/25 06:00:21;;;;;;;5.50;4.70;;;26.20;66.10;;;;;;5092420;28;20585;-65
2022/08/25 06:02:48;;;;;;;4.53;4.20;;;26.10;66.30;;;;;;5087204;28;20475;-66
2022/08/25 06:05:17;;;;;;;5.80;4.50;;;26.10;66.80;;;;;;5072857;28;20956;-66
2022/08/25 06:07:44;;;;;;;4.17;3.80;;;26.10;67.30;;;;;;5072703;28;21006;-66
2022/08/25 06:10:13;;;;;;;3.80;3.60;;;26.10;67.30;;;;;;5072550;28;20479;-66
2022/08/25 06:12:43;;;;;;;4.07;3.67;;;26.10;68.00;;;;;;5072715;28;20538;-67
2022/08/25 06:15:12;;;;;;;4.80;4.50;;;26.10;68.10;;;;;;5072811;28;20446;-68
2022/08/25 06:17:40;;;;;;;4.07;3.77;;;26.20;68.40;;;;;;5073063;28;20568;-67
2022/08/25 06:20:10;;;;;;;3.77;3.50;;;26.20;68.30;;;;;;5073287;28;20471;-70
2022/08/25 06:22:37;;;;;;;3.97;3.63;;;26.30;69.20;;;;;;5073889;28;20543;-66
2022/08/25 06:25:08;;;;;;;4.67;4.17;;;26.30;68.50;;;;;;5074431;28;20451;-69
2022/08/25 06:27:37;;;;;;;4.00;3.60;;;26.30;68.20;;;;;;5087652;28;20446;-66
2022/08/25 06:30:05;;;;;;;5.07;4.67;;;26.40;68.70;;;;;;5086030;28;20466;-68
2022/08/25 06:32:32;;;;;;;4.40;4.10;;;26.40;68.60;;;;;;5100262;22;21040;-67
2022/08/25 06:34:59;;;;;;;3.93;3.60;;;26.40;68.80;;;;;;5032704;28;20442;-67
2022/08/25 06:37:26;;;;;;;4.07;3.77;;;26.40;69.10;;;;;;5012831;28;20875;-66
2022/08/25 06:39:53;;;;;;;4.80;4.50;;;26.50;69.30;;;;;;5017447;28;20476;-64
2022/08/25 06:42:20;;;;;;;4.43;4.13;;;26.50;69.10;;;;;;5032323;28;20469;-64
2022/08/25 06:44:48;;;;;;;6.10;3.63;;;26.50;68.80;;;;;;5033092;28;20491;-66
2022/08/25 06:47:15;;;;;;;3.90;3.60;;;26.50;69.20;;;;;;5032944;28;20889;-66
2022/08/25 06:49:42;;;;;;;4.00;3.80;;;26.50;69.10;;;;;;5032304;28;20473;-67
2022/08/25 06:52:10;;;;;;;4.80;4.10;;;26.50;69.10;;;;;;5032782;28;20548;-67
2022/08/25 06:54:37;;;;;;;3.87;3.67;;;26.50;69.50;;;;;;5033786;28;20445;-66
2022/08/25 06:57:05;;;;;;;4.73;4.43;;;26.60;69.80;;;;;;5033956;28;20495;-66
2022/08/25 06:59:32;;;;;;;4.20;3.90;;;26.60;69.50;;;;;;5033470;28;20994;-67
2022/08/25 07:02:01;;;;;;;4.90;4.50;;;26.60;69.50;;;;;;5032146;28;20493;-67
2022/08/25 07:04:28;;;;;;;4.20;3.80;;;26.60;69.70;;;;;;5031755;28;20445;-68
2022/08/25 07:06:55;;;;;;;3.77;3.57;;;26.60;70.70;;;;;;5031930;28;20543;-68
2022/08/25 07:09:22;;;;;;;3.70;3.50;;;26.60;70.00;;;;;;5031551;28;20485;-65
2022/08/25 07:11:48;;;;;;;3.93;3.63;;;26.70;70.30;;;;;;5031669;28;20552;-66
2022/08/25 07:14:17;;;;;;;4.23;3.93;;;26.60;70.30;;;;;;5032318;28;20480;-66
2022/08/25 07:16:45;;;;;;;4.77;4.30;;;26.60;69.80;;;;;;5032458;28;20532;-67
2022/08/25 07:19:14;;;;;;;4.10;3.87;;;26.70;69.50;;;;;;5032246;28;20942;-66
2022/08/25 07:21:44;;;;;;;4.80;4.30;;;26.70;69.90;;;;;;5031872;28;20484;-66
2022/08/25 07:24:13;;;;;;;4.87;4.47;;;26.70;69.80;;;;;;5031914;28;20938;-66
2022/08/25 07:26:42;;;;;;;5.33;3.97;;;26.70;69.70;;;;;;5032317;28;20528;-66
2022/08/25 07:29:12;;;;;;;4.40;4.10;;;26.70;69.50;;;;;;5031531;28;20454;-67
2022/08/25 07:31:39;;;;;;;4.17;3.40;;;26.80;69.70;;;;;;5031955;28;20548;-67
2022/08/25 07:36:53;;;;;;;3.70;3.50;;;26.80;69.20;;;;;;5031548;28;20416;-67
2022/08/25 07:39:20;;;;;;;3.97;3.77;;;26.80;69.20;;;;;;5031360;28;20532;-65
2022/08/25 07:41:47;;;;;;;3.73;3.50;;;26.90;69.90;;;;;;5032024;28;20891;-67
2022/08/25 07:44:14;;;;;;;5.63;4.30;;;26.90;68.80;;;;;;5032278;28;20444;-68
2022/08/25 07:46:41;;;;;;;4.10;3.80;;;26.90;68.60;;;;;;5032229;28;20854;-68
2022/08/25 07:49:09;;;;;;;3.20;3.00;;;26.90;68.40;;;;;;5031664;28;20481;-68
2022/08/25 07:51:36;;;;;;;3.50;3.30;;;26.90;68.20;;;;;;5031912;28;20453;-68
2022/08/25 07:54:05;;;;;;;3.40;3.20;;;27.00;68.80;;;;;;5031852;28;20456;-68
2022/08/25 07:56:32;;;;;;;4.37;3.97;;;27.00;67.90;;;;;;5031972;28;20456;-68
2022/08/25 07:58:59;;;;;;;3.50;3.30;;;27.00;67.80;;;;;;5031653;28;20821;-68
2022/08/25 08:01:26;;;;;;;3.37;3.07;;;27.00;67.70;;;;;;5031598;28;20850;-68
2022/08/25 08:03:53;;;;;;;3.40;3.20;;;26.90;67.60;;;;;;5031819;28;20543;-68
2022/08/25 08:06:22;;;;;;;4.00;3.03;;;27.00;67.50;;;;;;5031912;28;20888;-68
2022/08/25 08:08:52;;;;;;;3.37;3.17;;;27.00;67.40;;;;;;5031600;28;21013;-68
2022/08/25 08:11:22;;;;;;;3.20;3.00;;;27.00;67.40;;;;;;5031556;28;20445;-68
2022/08/25 08:13:50;;;;;;;5.27;3.60;;;27.00;67.30;;;;;;5031591;28;20520;-68
2022/08/25 08:16:19;;;;;;;3.80;3.57;;;27.00;67.30;;;;;;5030445;28;20448;-68
2022/08/25 08:18:46;;;;;;;4.57;4.23;;;27.00;70.10;;;;;;5030391;28;20548;-69
2022/08/25 08:21:14;;;;;;;3.80;3.60;;;27.00;74.10;;;;;;5031441;28;20481;-67
2022/08/25 08:23:41;;;;;;;3.43;3.23;;;27.10;74.80;;;;;;5031514;28;20523;-69
2022/08/25 08:26:08;;;;;;;4.40;4.00;;;27.10;75.50;;;;;;5031350;28;20449;-68
2022/08/25 08:28:36;;;;;;;3.40;3.20;;;27.10;75.60;;;;;;5031371;28;20471;-68
2022/08/25 08:31:04;;;;;;;3.83;3.40;;;27.10;75.50;;;;;;5031306;28;20473;-68
2022/08/25 08:33:31;;;;;;;3.37;3.17;;;27.10;75.10;;;;;;5031398;28;20913;-67
2022/08/25 08:36:00;;;;;;;3.23;3.03;;;27.10;74.80;;;;;;5031582;28;20503;-67
2022/08/25 08:38:27;;;;;;;4.67;4.27;;;27.10;74.80;;;;;;5030841;28;20559;-67
2022/08/25 08:44:00;;;;;;;4.13;3.83;;;27.10;74.60;;;;;;5031564;28;20437;-68
2022/08/25 08:46:37;;;;;;;3.43;3.17;;;27.20;74.30;;;;;;5031490;28;20479;-67
2022/08/25 08:49:10;;;;;;;5.13;4.43;;;27.10;74.30;;;;;;5030975;28;20528;-68
2022/08/25 08:51:47;;;;;;;4.40;4.00;;;27.20;74.80;;;;;;5030370;28;20580;-69
2022/08/25 08:54:20;;;;;;;4.27;3.93;;;27.10;74.80;;;;;;5020317;28;20444;-70
2022/08/25 08:56:50;;;;;;;3.67;3.43;;;27.20;74.10;;;;;;5031210;28;20488;-69
2022/08/25 08:59:24;;;;;;;6.13;3.83;;;27.20;73.70;;;;;;5031289;28;20508;-67
2022/08/25 09:01:57;;;;;;;3.70;3.50;;;27.20;73.20;;;;;;5030925;28;20484;-66
2022/08/25 09:04:32;;;;;;;6.13;5.10;;;27.20;73.30;;;;;;5031275;28;20555;-65
2022/08/25 09:07:01;;;;;;;4.63;4.27;;;27.20;73.30;;;;;;5031132;28;20484;-67
2022/08/25 09:09:30;;;;;;;4.13;3.50;;;27.30;73.30;;;;;;5030903;28;20459;-65
2022/08/25 09:12:09;;;;;;;5.73;3.80;;;27.20;73.50;;;;;;5031059;28;20903;-66
2022/08/25 09:14:51;;;;;;;4.20;3.70;;;27.30;73.70;;;;;;5030784;28;20445;-67
2022/08/25 09:17:30;;;;;;;4.53;4.20;;;27.30;73.70;;;;;;5031231;28;20480;-67
2022/08/25 09:20:17;;;;;;;5.30;4.30;;;27.30;73.50;;;;;;5031023;28;20451;-67
2022/08/25 09:22:54;;;;;;;4.23;3.93;;;27.30;73.30;;;;;;5011233;28;20596;-69
2022/08/25 09:25:26;;;;;;;3.70;3.43;;;27.30;73.30;;;;;;5020022;28;20954;-66
2022/08/25 09:28:05;;;;;;;4.10;3.80;;;27.30;73.20;;;;;;5034667;28;21014;-66
2022/08/25 09:30:43;;;;;;;3.67;3.47;;;27.30;73.20;;;;;;5034303;28;20592;-67
2022/08/25 09:33:15;;;;;;;3.50;3.30;;;27.40;73.60;;;;;;5034320;28;20822;-67
2022/08/25 09:35:43;;;;;;;3.80;3.50;;;27.30;74.00;;;;;;5035026;28;20477;-68
2022/08/25 09:38:12;;;;;;;3.80;3.50;;;27.40;74.00;;;;;;5036078;28;20210;-68
2022/08/25 09:40:41;;;;;;;4.30;4.00;;;27.40;74.40;;;;;;5036315;28;20540;-68
2022/08/25 09:43:20;;;;;;;4.40;4.10;;;27.40;73.90;;;;;;5036432;28;20461;-69
2022/08/25 09:45:57;;;;;;;4.07;3.73;;;27.40;73.80;;;;;;5036019;28;20515;-66
2022/08/25 09:48:27;;;;;;;5.90;3.47;;;27.40;73.90;;;;;;5035578;28;20444;-67
2022/08/25 09:51:16;;;;;;;3.10;2.90;;;27.40;73.10;;;;;;5035672;28;20444;-67
2022/08/25 09:53:50;;;;;;;3.80;3.50;;;27.40;74.10;;;;;;5035361;28;20536;-67
2022/08/25 09:56:20;;;;;;;3.93;3.63;;;27.40;75.30;;;;;;5036021;28;20453;-67
2022/08/25 09:58:47;;;;;;;4.73;3.47;;;27.50;78.00;;;;;;5036519;28;20484;-67
2022/08/25 10:01:18;;;;;;;4.13;3.70;;;27.50;78.40;;;;;;5035788;28;21101;-66
2022/08/25 10:04:00;;;;;;;5.00;3.47;;;27.50;77.30;;;;;;5036319;28;20451;-68
2022/08/25 10:06:30;;;;;;;4.10;3.80;;;27.50;77.30;;;;;;5036488;28;20476;-67
2022/08/25 10:09:05;;;;;;;3.60;3.40;;;27.50;77.40;;;;;;5036438;28;20456;-67
2022/08/25 10:11:40;;;;;;;4.70;4.17;;;27.50;77.00;;;;;;5035597;28;20528;-66
2022/08/25 10:14:20;;;;;;;3.47;3.17;;;27.50;78.60;;;;;;5036310;28;20952;-67
2022/08/25 10:16:49;;;;;;;3.53;3.33;;;27.50;79.20;;;;;;5036676;28;20484;-66
2022/08/25 10:19:25;;;;;;;3.70;3.50;;;27.50;79.30;;;;;;5035722;28;20475;-68
2022/08/25 10:22:08;;;;;;;3.87;3.47;;;27.60;79.40;;;;;;5034685;28;20473;-67
2022/08/25 10:24:37;;;;;;;3.93;3.63;;;27.60;79.20;;;;;;5027100;28;20452;-65
2022/08/25 10:27:15;;;;;;;3.70;3.40;;;27.60;79.90;;;;;;5035638;28;20445;-65
2022/08/25 10:30:06;;;;;;;5.00;4.40;;;27.60;78.50;;;;;;5035392;28;20456;-65
2022/08/25 10:32:57;;;;;;;4.03;3.77;;;27.60;77.70;;;;;;5015595;28;20493;-65
2022/08/25 10:35:30;;;;;;;5.10;4.70;;;27.60;77.10;;;;;;5015741;28;20979;-64
2022/08/25 10:38:08;;;;;;;5.83;4.40;;;27.60;77.20;;;;;;5015015;28;20528;-67
2022/08/25 10:40:43;;;;;;;17.43;7.43;;;27.60;82.80;;;;;;5021376;28;20455;-67
2022/08/25 10:43:20;;;;;;;14.00;6.20;;;27.60;92.40;;;;;;5034015;28;20496;-67
2022/08/25 10:45:52;;;;;;;15.83;8.33;;;27.70;93.10;;;;;;5033383;28;20487;-66
2022/08/25 10:48:56;;;;;;;11.03;7.30;;;27.70;92.30;;;;;;5033593;28;20447;-66
2022/08/25 10:51:46;;;;;;;13.90;6.37;;;27.70;93.80;;;;;;4991333;28;20438;-67
2022/08/25 10:54:27;;;;;;;10.57;6.60;;;27.70;93.00;;;;;;5029490;28;20599;-67
2022/08/25 10:57:04;;;;;;;11.03;6.90;;;27.70;93.90;;;;;;5032842;28;20877;-68
2022/08/25 10:59:56;;;;;;;8.57;5.20;;;27.70;91.50;;;;;;5032506;28;20472;-68
2022/08/25 11:02:47;;;;;;;8.83;6.40;;;27.70;90.60;;;;;;5032658;28;20543;-68
2022/08/25 11:05:21;;;;;;;14.00;5.90;;;27.70;90.00;;;;;;5032834;28;20813;-67
2022/08/25 11:07:51;;;;;;;11.03;6.00;;;27.70;89.30;;;;;;5032710;28;20480;-68
2022/08/25 11:10:25;;;;;;;8.50;6.40;;;27.70;88.60;;;;;;5032249;28;20481;-67
2022/08/25 11:12:55;;;;;;;8.13;5.97;;;27.70;88.10;;;;;;5032574;28;20557;-68
2022/08/25 11:15:28;;;;;;;9.70;6.30;;;27.70;87.50;;;;;;5032601;28;20528;-68
2022/08/25 11:17:59;;;;;;;9.23;5.37;;;27.70;87.10;;;;;;5032210;28;20484;-68
2022/08/25 11:20:33;;;;;;;7.07;5.30;;;27.70;86.70;;;;;;5031995;28;20472;-67
2022/08/25 11:23:10;;;;;;;7.00;5.43;;;27.70;86.20;;;;;;5032311;28;20568;-69
2022/08/25 11:25:41;;;;;;;7.73;5.13;;;27.70;85.80;;;;;;5032445;28;20531;-67
2022/08/25 11:28:12;;;;;;;7.70;5.63;;;27.70;85.50;;;;;;5032098;28;20922;-68
2022/08/25 11:30:40;;;;;;;7.70;5.50;;;27.70;85.40;;;;;;5032156;28;20441;-68
2022/08/25 11:33:11;;;;;;;7.03;5.10;;;27.70;84.90;;;;;;5032083;28;20484;-68
2022/08/25 11:35:43;;;;;;;7.73;4.30;;;27.70;84.60;;;;;;5032210;28;20504;-69
2022/08/25 11:38:31;;;;;;;6.97;4.50;;;27.70;84.40;;;;;;5031993;28;20524;-67
2022/08/25 11:41:08;;;;;;;8.80;5.90;;;27.80;84.10;;;;;;5032079;28;20445;-67
2022/08/25 11:43:52;;;;;;;7.23;4.90;;;27.80;83.80;;;;;;5032045;28;20812;-68
2022/08/25 11:46:42;;;;;;;5.67;5.10;;;27.70;83.40;;;;;;5032093;28;20958;-68
2022/08/25 11:49:35;;;;;;;8.00;5.87;;;27.80;83.10;;;;;;5031231;28;20477;-68
2022/08/25 11:52:05;;;;;;;6.87;4.60;;;27.80;82.90;;;;;;5031908;28;20465;-68
2022/08/25 11:54:37;;;;;;;7.70;4.80;;;27.80;82.70;;;;;;5031921;28;20961;-67
2022/08/25 11:57:07;;;;;;;4.83;4.33;;;27.70;82.40;;;;;;5031826;28;20460;-67
2022/08/25 12:00:04;;;;;;;7.80;4.70;;;27.80;82.20;;;;;;5030889;28;20445;-67
2022/08/25 12:02:38;;;;;;;6.17;4.50;;;27.80;81.90;;;;;;5031749;28;20485;-68
2022/08/25 12:05:08;;;;;;;4.40;3.70;;;27.80;81.70;;;;;;5031835;28;20455;-68
2022/08/25 12:10:56;;;;;;;6.00;4.50;;;27.80;81.20;;;;;;5031372;28;20448;-67
2022/08/25 12:13:46;;;;;;;5.60;3.87;;;27.80;80.90;;;;;;5031650;28;20855;-67
2022/08/25 12:16:38;;;;;;;5.77;5.00;;;27.80;80.60;;;;;;5026050;28;20495;-67
2022/08/25 12:19:25;;;;;;;4.47;4.07;;;27.90;84.60;;;;;;5022645;28;20523;-68
2022/08/25 12:21:53;;;;;;;3.83;3.43;;;27.80;85.90;;;;;;5031296;28;20487;-64
2022/08/25 12:24:43;;;;;;;4.57;3.80;;;27.90;84.70;;;;;;5031757;28;20538;-68
2022/08/25 12:27:20;;;;;;;4.43;4.03;;;27.90;86.20;;;;;;5031589;28;20532;-67
2022/08/25 12:29:52;;;;;;;5.33;3.30;;;27.90;83.30;;;;;;5031167;28;20531;-68
2022/08/25 12:32:33;;;;;;;4.87;4.57;;;27.90;82.70;;;;;;5057238;22;20509;-62
2022/08/25 12:35:24;;;;;;;3.23;3.03;;;27.90;82.30;;;;;;5043162;28;20522;-60
2022/08/25 12:37:57;;;;;;;4.17;3.80;;;27.90;81.80;;;;;;5051258;28;20464;-65
2022/08/25 12:40:31;;;;;;;3.87;3.57;;;27.90;81.50;;;;;;5029832;28;20532;-65
2022/08/25 12:43:05;;;;;;;4.30;4.00;;;27.90;83.90;;;;;;5031416;28;20480;-64
2022/08/25 12:45:39;;;;;;;6.10;3.37;;;27.90;84.40;;;;;;5031382;28;20867;-64
2022/08/25 12:48:57;;;;;;;5.20;4.13;;;27.90;83.70;;;;;;5031471;28;20524;-64
2022/08/25 12:51:26;;;;;;;3.60;3.30;;;28.00;85.10;;;;;;5014459;28;20441;-64
2022/08/25 12:53:59;;;;;;;4.70;3.63;;;28.00;83.70;;;;;;5031186;28;21053;-64
2022/08/25 12:56:32;;;;;;;5.30;3.50;;;28.00;84.10;;;;;;5031329;28;20437;-63
2022/08/25 12:59:12;;;;;;;4.50;4.10;;;28.00;84.00;;;;;;5031233;28;20453;-63
2022/08/25 13:02:04;;;;;;;3.60;3.40;;;28.10;83.70;;;;;;5034895;28;20471;-65
2022/08/25 13:05:12;;;;;;;5.10;3.70;;;28.10;83.00;;;;;;5035172;28;20468;-63
2022/08/25 13:08:04;;;;;;;4.40;4.00;;;28.10;83.10;;;;;;5010650;28;20488;-64
2022/08/25 13:10:45;;;;;;;3.83;3.63;;;28.10;82.20;;;;;;5034596;28;20483;-62
2022/08/25 13:13:23;;;;;;;3.23;3.03;;;28.10;82.20;;;;;;5034656;28;20460;-64
2022/08/25 13:16:00;;;;;;;3.43;3.23;;;28.10;81.80;;;;;;5035047;28;20819;-64